createdAt,value
2023-02-16T00:00:51.065Z,-0.66
2023-02-16T00:03:37.503Z,-0.67
2023-02-16T00:06:06.206Z,-0.68
2023-02-16T00:08:34.520Z,-0.69
2023-02-16T00:11:21.382Z,-0.69
2023-02-16T00:13:52.892Z,-0.69
2023-02-16T00:16:24.637Z,-0.69
2023-02-16T00:18:53.390Z,-0.71
2023-02-16T00:21:22.500Z,-0.72
2023-02-16T00:23:51.167Z,-0.73
2023-02-16T00:26:24.155Z,-0.74
2023-02-16T00:28:55.081Z,-0.76
2023-02-16T00:31:27.557Z,-0.78
2023-02-16T00:33:55.941Z,-0.81
2023-02-16T00:36:25.156Z,-0.83
2023-02-16T00:38:53.559Z,-0.85
2023-02-16T00:41:43.484Z,-0.86
2023-02-16T00:44:18.693Z,-0.88
2023-02-16T00:46:48.294Z,-0.90
2023-02-16T00:49:19.798Z,-0.92
2023-02-16T00:51:50.207Z,-0.95
2023-02-16T00:54:18.594Z,-0.95
2023-02-16T00:56:47.412Z,-0.95
2023-02-16T00:59:20.795Z,-0.96
2023-02-16T01:01:49.887Z,-0.96
2023-02-16T01:04:23.591Z,-0.95
2023-02-16T01:07:11.073Z,-0.95
2023-02-16T01:09:58.218Z,-0.97
2023-02-16T01:12:26.565Z,-1.01
2023-02-16T01:14:55.865Z,-1.04
2023-02-16T01:17:24.877Z,-1.08
2023-02-16T01:19:54.065Z,-1.11
2023-02-16T01:22:22.466Z,-1.14
2023-02-16T01:24:50.860Z,-1.16
2023-02-16T01:27:19.304Z,-1.17
2023-02-16T01:29:47.716Z,-1.18
2023-02-16T01:32:16.278Z,-1.20
2023-02-16T01:34:44.801Z,-1.20
2023-02-16T01:37:16.225Z,-1.22
2023-02-16T01:39:44.750Z,-1.22
2023-02-16T01:42:43.563Z,-1.22
2023-02-16T01:45:20.276Z,-1.23
2023-02-16T01:47:55.135Z,-1.24
2023-02-16T01:50:36.724Z,-1.26
2023-02-16T01:53:30.840Z,-1.28
2023-02-16T01:56:05.893Z,-1.30
2023-02-16T01:58:48.089Z,-1.32
2023-02-16T02:01:41.007Z,-1.35
2023-02-16T02:04:56.414Z,-1.38
2023-02-16T02:07:52.274Z,-1.42
2023-02-16T02:11:12.349Z,-1.44
2023-02-16T02:13:47.622Z,-1.45
2023-02-16T02:16:28.221Z,-1.46
2023-02-16T02:18:56.697Z,-1.48
2023-02-16T02:22:33.130Z,-1.47
2023-02-16T02:25:31.102Z,-1.48
2023-02-16T02:28:14.146Z,-1.50
2023-02-16T02:31:24.752Z,-1.52
2023-02-16T02:34:36.863Z,-1.53
2023-02-16T02:37:41.523Z,-1.53
2023-02-16T02:40:23.762Z,-1.54
2023-02-16T02:43:21.237Z,-1.54
2023-02-16T02:45:57.679Z,-1.57
2023-02-16T02:48:34.724Z,-1.59
2023-02-16T02:51:30.330Z,-1.60
2023-02-16T02:54:35.271Z,-1.61
2023-02-16T02:57:51.321Z,-1.63
2023-02-16T03:00:41.424Z,-1.65
2023-02-16T03:03:31.952Z,-1.67
2023-02-16T03:06:09.927Z,-1.70
2023-02-16T03:08:43.296Z,-1.74
2023-02-16T03:11:41.402Z,-1.77
2023-02-16T03:14:33.255Z,-1.79
2023-02-16T03:17:30.352Z,-1.80
2023-02-16T03:20:20.463Z,-1.81
2023-02-16T03:23:08.032Z,-1.81
2023-02-16T03:25:57.763Z,-1.81
2023-02-16T03:28:48.899Z,-1.82
2023-02-16T03:31:25.312Z,-1.82
2023-02-16T03:33:54.779Z,-1.82
2023-02-16T03:36:31.618Z,-1.81
2023-02-16T03:39:00.764Z,-1.80
2023-02-16T03:41:34.497Z,-1.78
2023-02-16T03:44:02.861Z,-1.77
2023-02-16T03:46:31.764Z,-1.78
2023-02-16T03:49:00.050Z,-1.79
2023-02-16T03:51:28.597Z,-1.79
2023-02-16T03:53:56.984Z,-1.80
2023-02-16T03:56:25.405Z,-1.81
2023-02-16T03:58:54.405Z,-1.82
2023-02-16T04:01:23.122Z,-1.83
2023-02-16T04:03:51.606Z,-1.84
2023-02-16T04:06:20.102Z,-1.84
2023-02-16T04:08:48.516Z,-1.85
2023-02-16T04:11:35.593Z,-1.86
2023-02-16T04:14:04.088Z,-1.89
2023-02-16T04:16:32.534Z,-1.89
2023-02-16T04:19:00.885Z,-1.91
2023-02-16T04:21:29.337Z,-1.91
2023-02-16T04:23:57.702Z,-1.92
2023-02-16T04:26:26.157Z,-1.91
2023-02-16T04:28:54.559Z,-1.91
2023-02-16T04:31:23.292Z,-1.90
2023-02-16T04:33:51.810Z,-1.90
2023-02-16T04:36:20.782Z,-1.90
2023-02-16T04:38:49.134Z,-1.90
2023-02-16T04:41:17.452Z,-1.88
2023-02-16T04:43:45.819Z,-1.88
2023-02-16T04:46:14.192Z,-1.88
2023-02-16T04:48:42.854Z,-1.88
2023-02-16T04:51:11.491Z,-1.88
2023-02-16T04:53:39.819Z,-1.88
2023-02-16T04:56:12.302Z,-1.87
2023-02-16T04:58:41.695Z,-1.87
2023-02-16T05:01:18.570Z,-1.86
2023-02-16T05:03:47.504Z,-1.87
2023-02-16T05:06:16.692Z,-1.88
2023-02-16T05:08:45.658Z,-1.87
2023-02-16T05:11:33.287Z,-1.88
2023-02-16T05:14:20.375Z,-1.89
2023-02-16T05:16:48.716Z,-1.89
2023-02-16T05:19:17.052Z,-1.88
2023-02-16T05:21:45.458Z,-1.89
2023-02-16T05:24:13.796Z,-1.91
2023-02-16T05:26:42.232Z,-1.91
2023-02-16T05:29:10.646Z,-1.93
2023-02-16T05:31:39.346Z,-1.94
2023-02-16T05:34:07.729Z,-1.93
2023-02-16T05:36:36.101Z,-1.93
2023-02-16T05:39:04.567Z,-1.92
2023-02-16T05:41:33.003Z,-1.90
2023-02-16T05:44:03.822Z,-1.90
2023-02-16T05:46:35.696Z,-1.90
2023-02-16T05:49:06.170Z,-1.89
2023-02-16T05:51:36.109Z,-1.88
2023-02-16T05:54:05.191Z,-1.88
2023-02-16T05:56:33.832Z,-1.87
2023-02-16T05:59:02.250Z,-1.85
2023-02-16T06:01:30.606Z,-1.84
2023-02-16T06:03:59.029Z,-1.83
2023-02-16T06:06:27.416Z,-1.81
2023-02-16T06:08:55.772Z,-1.79
2023-02-16T06:11:36.245Z,-1.77
2023-02-16T06:14:18.094Z,-1.77
2023-02-16T06:16:49.505Z,-1.77
2023-02-16T06:19:20.310Z,-1.76
2023-02-16T06:21:48.825Z,-1.75
2023-02-16T06:24:17.265Z,-1.73
2023-02-16T06:26:46.158Z,-1.69
2023-02-16T06:29:14.531Z,-1.68
2023-02-16T06:31:43.124Z,-1.63
2023-02-16T06:34:11.559Z,-1.61
2023-02-16T06:36:42.432Z,-1.56
2023-02-16T06:39:10.976Z,-1.51
2023-02-16T06:41:40.518Z,-1.44
2023-02-16T06:44:15.319Z,-1.38
2023-02-16T06:46:46.273Z,-1.29
2023-02-16T06:49:20.095Z,-1.20
2023-02-16T06:51:50.087Z,-1.11
2023-02-16T06:54:19.159Z,-1.04
2023-02-16T06:56:53.943Z,-0.96
2023-02-16T06:59:23.337Z,-0.88
2023-02-16T07:01:51.640Z,-0.80
2023-02-16T07:04:19.999Z,-0.72
2023-02-16T07:06:48.821Z,-0.62
2023-02-16T07:09:18.310Z,-0.55
2023-02-16T07:11:46.636Z,-0.47
2023-02-16T07:14:15.970Z,-0.40
2023-02-16T07:16:44.373Z,-0.32
2023-02-16T07:19:13.400Z,-0.23
2023-02-16T07:21:41.870Z,-0.14
2023-02-16T07:24:10.249Z,-0.06
2023-02-16T07:26:38.752Z,0.03
2023-02-16T07:29:07.110Z,0.11
2023-02-16T07:31:35.549Z,0.18
2023-02-16T07:34:04.083Z,0.24
2023-02-16T07:36:32.451Z,0.29
2023-02-16T07:39:01.024Z,0.36
2023-02-16T07:41:29.413Z,0.43
2023-02-16T07:43:57.731Z,0.54
2023-02-16T07:46:26.016Z,0.65
2023-02-16T07:48:54.398Z,0.77
2023-02-16T07:51:28.917Z,0.89
2023-02-16T07:53:59.850Z,1.00
2023-02-16T07:56:31.703Z,1.11
2023-02-16T07:59:02.596Z,1.23
2023-02-16T08:01:31.689Z,1.33
2023-02-16T08:04:00.051Z,1.44
2023-02-16T08:06:28.427Z,1.57
2023-02-16T08:08:57.347Z,1.68
2023-02-16T08:11:26.022Z,1.77
2023-02-16T08:13:54.610Z,1.85
2023-02-16T08:16:27.163Z,1.99
2023-02-16T08:18:58.003Z,2.10
2023-02-16T08:21:31.068Z,2.20
2023-02-16T08:24:05.968Z,2.34
2023-02-16T08:26:39.332Z,2.49
2023-02-16T08:29:15.266Z,2.65
2023-02-16T08:31:47.826Z,2.82
2023-02-16T08:34:19.646Z,2.98
2023-02-16T08:36:53.268Z,3.15
2023-02-16T08:39:24.754Z,3.33
2023-02-16T08:41:54.990Z,3.51
2023-02-16T08:44:25.394Z,3.67
2023-02-16T08:46:58.847Z,3.84
2023-02-16T08:49:27.704Z,4.01
2023-02-16T08:51:58.850Z,4.16
2023-02-16T08:54:30.670Z,4.34
2023-02-16T08:57:01.587Z,4.54
2023-02-16T08:59:30.900Z,4.74
2023-02-16T09:02:00.353Z,4.94
2023-02-16T09:04:29.342Z,5.14
2023-02-16T09:06:59.606Z,5.33
2023-02-16T09:09:28.590Z,5.54
2023-02-16T09:11:58.133Z,5.78
2023-02-16T09:14:27.940Z,6.02
2023-02-16T09:16:56.765Z,6.19
2023-02-16T09:19:26.013Z,6.33
2023-02-16T09:21:56.421Z,6.48
2023-02-16T09:24:25.300Z,6.67
2023-02-16T09:26:53.682Z,6.85
2023-02-16T09:29:22.094Z,7.03
2023-02-16T09:31:50.495Z,7.23
2023-02-16T09:34:22.641Z,7.40
2023-02-16T09:36:51.625Z,7.64
2023-02-16T09:39:20.048Z,7.94
2023-02-16T09:42:06.345Z,8.23
2023-02-16T09:45:04.603Z,8.57
2023-02-16T09:47:37.174Z,8.88
2023-02-16T09:50:43.903Z,9.14
2023-02-16T09:53:24.436Z,9.47
2023-02-16T09:56:04.577Z,9.73
2023-02-16T09:58:49.798Z,10.07
2023-02-16T10:01:39.967Z,10.35
2023-02-16T10:05:01.781Z,10.49
2023-02-16T10:07:52.989Z,10.73
2023-02-16T10:10:27.675Z,10.93
2023-02-16T10:13:12.938Z,11.07
2023-02-16T10:15:45.403Z,11.28
2023-02-16T10:18:29.438Z,11.40
2023-02-16T10:21:02.716Z,11.58
2023-02-16T10:23:58.863Z,11.72
2023-02-16T10:26:35.192Z,11.84
2023-02-16T10:29:07.523Z,11.90
2023-02-16T10:31:48.374Z,11.90
2023-02-16T10:34:47.504Z,11.99
2023-02-16T10:37:47.909Z,12.06
2023-02-16T10:40:27.548Z,12.25
2023-02-16T10:43:07.498Z,12.41
2023-02-16T10:45:53.062Z,12.53
2023-02-16T10:48:22.984Z,12.75
2023-02-16T10:51:03.712Z,12.93
2023-02-16T10:53:32.292Z,13.10
2023-02-16T10:56:00.877Z,13.23
2023-02-16T10:58:39.925Z,13.37
2023-02-16T11:01:16.966Z,13.41
2023-02-16T11:03:50.583Z,13.50
2023-02-16T11:06:25.538Z,13.69
2023-02-16T11:08:57.956Z,13.83
2023-02-16T11:11:45.023Z,13.99
2023-02-16T11:14:29.802Z,14.19
2023-02-16T11:17:13.458Z,14.44
2023-02-16T11:19:52.437Z,14.59
2023-02-16T11:22:31.242Z,14.67
2023-02-16T11:25:24.115Z,14.78
2023-02-16T11:28:08.319Z,14.87
2023-02-16T11:30:41.382Z,14.93
2023-02-16T11:33:29.316Z,14.87
2023-02-16T11:35:58.080Z,14.85
2023-02-16T11:38:34.378Z,14.81
2023-02-16T11:41:06.563Z,14.78
2023-02-16T11:43:38.313Z,14.72
2023-02-16T11:46:20.754Z,14.59
2023-02-16T11:48:49.434Z,14.50
2023-02-16T11:51:33.067Z,14.45
2023-02-16T11:54:06.259Z,14.46
2023-02-16T11:56:35.852Z,14.47
2023-02-16T11:59:19.231Z,14.43
2023-02-16T12:02:03.016Z,14.46
2023-02-16T12:05:03.444Z,14.51
2023-02-16T12:07:51.652Z,14.52
2023-02-16T12:10:34.773Z,14.50
2023-02-16T12:13:38.387Z,14.47
2023-02-16T12:16:26.189Z,14.46
2023-02-16T12:19:38.487Z,14.45
2023-02-16T12:22:43.297Z,14.40
2023-02-16T12:25:33.377Z,14.36
2023-02-16T12:28:42.563Z,14.34
2023-02-16T12:31:50.119Z,14.33
2023-02-16T12:34:47.609Z,14.34
2023-02-16T12:37:34.644Z,14.28
2023-02-16T12:40:10.546Z,14.19
2023-02-16T12:43:18.519Z,14.06
2023-02-16T12:45:48.211Z,13.93
2023-02-16T12:48:47.955Z,13.88
2023-02-16T12:51:26.947Z,13.79
2023-02-16T12:54:10.758Z,13.67
2023-02-16T12:57:01.768Z,13.59
2023-02-16T13:00:15.276Z,13.48
2023-02-16T13:02:57.034Z,13.27
2023-02-16T13:05:34.757Z,13.10
2023-02-16T13:08:38.932Z,12.93
2023-02-16T13:11:10.415Z,12.69
2023-02-16T13:13:41.355Z,12.56
2023-02-16T13:16:30.855Z,12.47
2023-02-16T13:18:59.566Z,12.39
2023-02-16T13:21:58.877Z,12.34
2023-02-16T13:24:46.498Z,12.32
2023-02-16T13:27:20.210Z,12.33
2023-02-16T13:30:05.861Z,12.37
2023-02-16T13:32:50.594Z,12.36
2023-02-16T13:35:53.045Z,12.36
2023-02-16T13:38:40.889Z,12.33
2023-02-16T13:41:27.215Z,12.48
2023-02-16T13:44:02.589Z,12.61
2023-02-16T13:46:40.362Z,12.69
2023-02-16T13:49:27.850Z,12.73
2023-02-16T13:51:56.321Z,12.79
2023-02-16T13:54:40.496Z,12.79
2023-02-16T13:57:50.482Z,12.75
2023-02-16T14:00:49.194Z,12.63
2023-02-16T14:03:17.564Z,12.55
2023-02-16T14:05:55.806Z,12.48
2023-02-16T14:08:28.256Z,12.42
2023-02-16T14:11:01.407Z,12.48
2023-02-16T14:13:38.942Z,12.59
2023-02-16T14:16:14.596Z,12.80
2023-02-16T14:18:47.209Z,12.97
2023-02-16T14:21:36.005Z,13.11
2023-02-16T14:24:11.543Z,13.30
2023-02-16T14:27:01.934Z,13.45
2023-02-16T14:30:00.656Z,13.63
2023-02-16T14:32:38.778Z,13.76
2023-02-16T14:35:30.996Z,13.67
2023-02-16T14:38:27.660Z,13.73
2023-02-16T14:40:59.737Z,14.02
2023-02-16T14:43:40.403Z,14.30
2023-02-16T14:46:32.194Z,14.71
2023-02-16T14:49:28.789Z,15.14
2023-02-16T14:52:07.688Z,15.56
2023-02-16T14:54:56.508Z,15.95
2023-02-16T14:57:53.910Z,16.26
2023-02-16T15:00:50.864Z,16.55
2023-02-16T15:03:23.792Z,16.88
2023-02-16T15:06:06.253Z,17.16
2023-02-16T15:08:40.106Z,17.36
2023-02-16T15:11:11.479Z,17.43
2023-02-16T15:13:40.428Z,17.45
2023-02-16T15:16:15.821Z,17.44
2023-02-16T15:18:56.821Z,17.36
2023-02-16T15:21:28.524Z,17.18
2023-02-16T15:24:01.564Z,17.05
2023-02-16T15:26:35.539Z,16.99
2023-02-16T15:29:18.622Z,16.95
2023-02-16T15:31:47.317Z,16.93
2023-02-16T15:34:36.090Z,16.82
2023-02-16T15:37:29.045Z,16.51
2023-02-16T15:40:26.160Z,15.99
2023-02-16T15:42:58.332Z,15.43
2023-02-16T15:45:35.363Z,14.94
2023-02-16T15:48:39.147Z,14.50
2023-02-16T15:51:28.308Z,13.98
2023-02-16T15:54:13.440Z,13.51
2023-02-16T15:56:54.333Z,13.08
2023-02-16T15:59:35.526Z,12.69
2023-02-16T16:02:16.357Z,12.32
2023-02-16T16:04:57.468Z,11.96
2023-02-16T16:07:35.738Z,11.62
2023-02-16T16:10:21.020Z,11.33
2023-02-16T16:12:51.107Z,11.03
2023-02-16T16:15:25.237Z,10.77
2023-02-16T16:17:55.999Z,10.53
2023-02-16T16:20:42.047Z,10.32
2023-02-16T16:23:14.368Z,10.07
2023-02-16T16:25:48.731Z,9.75
2023-02-16T16:28:27.145Z,9.32
2023-02-16T16:31:17.943Z,8.96
2023-02-16T16:33:59.369Z,8.52
2023-02-16T16:36:55.379Z,8.28
2023-02-16T16:39:36.283Z,8.12
2023-02-16T16:42:21.024Z,7.97
2023-02-16T16:45:38.488Z,7.87
2023-02-16T16:48:19.184Z,7.76
2023-02-16T16:50:48.820Z,7.69
2023-02-16T16:53:29.659Z,7.62
2023-02-16T16:56:00.592Z,7.54
2023-02-16T16:58:29.599Z,7.48
2023-02-16T17:00:58.045Z,7.42
2023-02-16T17:03:26.583Z,7.37
2023-02-16T17:05:55.029Z,7.31
2023-02-16T17:08:23.338Z,7.23
2023-02-16T17:10:51.830Z,7.14
2023-02-16T17:13:21.161Z,6.99
2023-02-16T17:16:06.869Z,6.83
2023-02-16T17:18:35.491Z,6.66
2023-02-16T17:21:05.394Z,6.54
2023-02-16T17:23:34.120Z,6.46
2023-02-16T17:26:02.815Z,6.39
2023-02-16T17:28:36.635Z,6.34
2023-02-16T17:31:08.069Z,6.28
2023-02-16T17:33:36.693Z,6.21
2023-02-16T17:36:08.074Z,6.17
2023-02-16T17:38:36.499Z,6.11
2023-02-16T17:41:05.129Z,6.05
2023-02-16T17:43:33.698Z,6.00
2023-02-16T17:46:06.522Z,5.94
2023-02-16T17:48:36.661Z,5.86
2023-02-16T17:51:06.690Z,5.81
2023-02-16T17:53:35.416Z,5.76
2023-02-16T17:56:04.235Z,5.71
2023-02-16T17:58:32.847Z,5.66
2023-02-16T18:01:01.432Z,5.60
2023-02-16T18:03:29.866Z,5.55
2023-02-16T18:05:58.236Z,5.51
2023-02-16T18:08:26.546Z,5.47
2023-02-16T18:11:01.956Z,5.43
2023-02-16T18:13:31.769Z,5.33
2023-02-16T18:16:03.803Z,5.20
2023-02-16T18:18:36.724Z,5.10
2023-02-16T18:21:05.826Z,4.95
2023-02-16T18:23:34.192Z,4.82
2023-02-16T18:26:03.675Z,4.71
2023-02-16T18:28:34.200Z,4.53
2023-02-16T18:31:06.753Z,4.31
2023-02-16T18:33:35.270Z,4.07
2023-02-16T18:36:04.615Z,3.85
2023-02-16T18:38:33.178Z,3.67
2023-02-16T18:41:01.558Z,3.54
2023-02-16T18:43:30.136Z,3.48
2023-02-16T18:45:58.502Z,3.43
2023-02-16T18:48:26.918Z,3.36
2023-02-16T18:50:55.242Z,3.28
2023-02-16T18:53:23.612Z,3.24
2023-02-16T18:55:51.893Z,3.22
2023-02-16T18:58:20.249Z,3.19
2023-02-16T19:00:48.691Z,3.16
2023-02-16T19:03:17.146Z,3.09
2023-02-16T19:05:45.743Z,2.98
2023-02-16T19:08:14.577Z,2.88
2023-02-16T19:10:43.051Z,2.84
2023-02-16T19:13:11.554Z,2.82
2023-02-16T19:15:39.961Z,2.78
2023-02-16T19:18:08.338Z,2.70
2023-02-16T19:20:36.718Z,2.62
2023-02-16T19:23:05.078Z,2.58
2023-02-16T19:25:33.502Z,2.53
2023-02-16T19:28:01.994Z,2.53
2023-02-16T19:30:30.433Z,2.55
2023-02-16T19:32:58.861Z,2.57
2023-02-16T19:35:27.280Z,2.57
2023-02-16T19:37:55.944Z,2.57
2023-02-16T19:40:24.416Z,2.57
2023-02-16T19:42:52.853Z,2.58
2023-02-16T19:45:21.347Z,2.57
2023-02-16T19:47:51.254Z,2.57
2023-02-16T19:50:19.582Z,2.57
2023-02-16T19:52:47.919Z,2.55
2023-02-16T19:55:16.262Z,2.52
2023-02-16T19:57:44.591Z,2.49
2023-02-16T20:00:14.278Z,2.43
2023-02-16T20:02:42.680Z,2.41
2023-02-16T20:05:11.867Z,2.39
2023-02-16T20:07:40.287Z,2.38
2023-02-16T20:10:09.625Z,2.37
2023-02-16T20:12:38.035Z,2.34
2023-02-16T20:15:06.957Z,2.32
2023-02-16T20:17:35.310Z,2.32
2023-02-16T20:20:05.372Z,2.31
2023-02-16T20:22:33.964Z,2.29
2023-02-16T20:25:02.658Z,2.29
2023-02-16T20:27:31.126Z,2.29
2023-02-16T20:30:03.090Z,2.28
2023-02-16T20:32:32.619Z,2.28
2023-02-16T20:35:07.400Z,2.27
2023-02-16T20:37:35.755Z,2.26
2023-02-16T20:40:05.113Z,2.25
2023-02-16T20:42:33.547Z,2.25
2023-02-16T20:45:01.905Z,2.25
2023-02-16T20:47:30.256Z,2.25
2023-02-16T20:49:58.587Z,2.26
2023-02-16T20:52:26.998Z,2.28
2023-02-16T20:54:55.403Z,2.31
2023-02-16T20:57:27.087Z,2.34
2023-02-16T20:59:55.983Z,2.36
2023-02-16T21:02:24.619Z,2.40
2023-02-16T21:04:53.076Z,2.44
2023-02-16T21:07:21.550Z,2.47
2023-02-16T21:09:49.926Z,2.50
2023-02-16T21:12:18.304Z,2.53
2023-02-16T21:14:46.697Z,2.56
2023-02-16T21:17:15.088Z,2.59
2023-02-16T21:19:43.536Z,2.61
2023-02-16T21:22:11.873Z,2.64
2023-02-16T21:24:40.870Z,2.66
2023-02-16T21:27:10.740Z,2.69
2023-02-16T21:29:39.168Z,2.73
2023-02-16T21:32:07.632Z,2.76
2023-02-16T21:34:36.756Z,2.80
2023-02-16T21:37:05.229Z,2.83
2023-02-16T21:39:52.490Z,2.82
2023-02-16T21:42:20.796Z,2.82
2023-02-16T21:45:09.078Z,2.84
2023-02-16T21:47:56.072Z,2.85
2023-02-16T21:50:24.976Z,2.85
2023-02-16T21:52:54.230Z,2.86
2023-02-16T21:55:41.416Z,2.88
2023-02-16T21:58:10.844Z,2.89
2023-02-16T22:00:39.772Z,2.92
2023-02-16T22:03:11.278Z,2.95
2023-02-16T22:05:39.762Z,2.97
2023-02-16T22:08:09.217Z,3.02
2023-02-16T22:10:37.556Z,3.07
2023-02-16T22:13:05.955Z,3.09
2023-02-16T22:15:37.109Z,3.13
2023-02-16T22:18:06.286Z,3.15
2023-02-16T22:20:34.647Z,3.17
2023-02-16T22:23:03.756Z,3.18
2023-02-16T22:25:32.073Z,3.19
2023-02-16T22:28:00.375Z,3.20
2023-02-16T22:30:28.836Z,3.19
2023-02-16T22:32:57.152Z,3.18
2023-02-16T22:35:25.417Z,3.15
2023-02-16T22:37:53.689Z,3.15
2023-02-16T22:40:22.035Z,3.12
2023-02-16T22:42:50.494Z,3.11
2023-02-16T22:45:18.791Z,3.09
2023-02-16T22:47:47.130Z,3.07
2023-02-16T22:50:15.512Z,3.04
2023-02-16T22:52:43.868Z,3.00
2023-02-16T22:55:12.247Z,2.98
2023-02-16T22:57:40.648Z,2.95
2023-02-16T23:00:15.602Z,2.93
2023-02-16T23:02:44.027Z,2.92
2023-02-16T23:05:12.401Z,2.91
2023-02-16T23:07:40.765Z,2.91
2023-02-16T23:10:09.482Z,2.90
2023-02-16T23:12:37.785Z,2.92
2023-02-16T23:15:06.623Z,2.91
2023-02-16T23:17:34.958Z,2.93
2023-02-16T23:20:04.996Z,2.95
2023-02-16T23:22:33.358Z,2.93
2023-02-16T23:25:21.174Z,2.94
2023-02-16T23:27:53.081Z,2.95
2023-02-16T23:30:21.566Z,2.98
2023-02-16T23:32:49.982Z,2.99
2023-02-16T23:35:18.434Z,3.02
2023-02-16T23:37:46.788Z,3.05
2023-02-16T23:40:15.442Z,3.06
2023-02-16T23:42:43.764Z,3.08
2023-02-16T23:45:12.069Z,3.10
2023-02-16T23:47:40.408Z,3.13
2023-02-16T23:50:08.970Z,3.16
2023-02-16T23:52:37.274Z,3.19
2023-02-16T23:55:06.060Z,3.23
2023-02-16T23:57:34.537Z,3.27
